Locatie 51° 56′ 37″.87 NB – 05° 58’47”.70 OL

Webcam1-NNO Meer informatie Webcam1-NNO


Webcam2-ZZO Meer informatie Webcam2-ZZO


Bezoek ook deze websites:

Template documentatie
en downloads

Weer Sluispark Leuven

Allesoversterrenkunde.nl

Luchtkwaliteit Beekenoord



METAR rapporten vliegvelden

Warning: A non-numeric value encountered in /mnt/web201/a1/60/54316460/htdocs/weerstation/weather28/metar/metarDisplay.php on line 166
   
EHVK - Volkel Rnlafb, Netherlands
Afstand tot: ZW 18 km
Gewijzigd: 19-07-2024 17:55
Bewolking  
Bewolking  
   Wind: Oosten 9.3 km/h
Wind: Oosten 9.3 km/h
Temperatuur: 29°C
Gevoelstemperatuur: 29°C
Dauwpunt: 15°C
Vochtigheid: 43%
Barometer: 1016 hPa
Bewolking: Bewolking
Zicht: meer dan 10 km
Bewolking: Licht bewolkt 6400 ft,
Bewolking 18000 ft
EHVK 191555Z AUTO 09005KT 070V170 9999 FEW064 OVC180 29/15 Q1016 BLU
EDLV - Niederrhein, Germany
Afstand tot: ZO 25 km
Gewijzigd: 19-07-2024 17:50
Helder  
Helder  
   Wind: ZZO 5.6 km/h
Wind: ZZO 5.6 km/h
Temperatuur: 29°C
Gevoelstemperatuur: 29°C
Dauwpunt: 15°C
Vochtigheid: 43%
Barometer: 1017 hPa
Zicht: meer dan 10 km
Bewolking: Helder
EDLV 191550Z 16003KT 080V210 CAVOK 29/15 Q1017
EHDL - Deelen Rnlafb, Netherlands
Afstand tot: N 35 km
Gewijzigd: 19-07-2024 17:55
Bewolking  
Bewolking  
   Wind: OZO 7.4 km/h
Wind: OZO 7.4 km/h
Temperatuur: 28°C
Gevoelstemperatuur: 28°C
Dauwpunt: 16°C
Vochtigheid: 48%
Barometer: 1015 hPa
Bewolking: Bewolking
Zicht: meer dan 10 km
Bewolking: Gedeeltelijk bewolkt 6000 ft,
Bewolking 15000 ft
EHDL 191555Z AUTO 11004KT 050V170 9999 SCT060 OVC150 28/16 Q1015 BLACKBLU
EHEH - Eindhoven Rnlafb, Netherlands
Afstand tot: ZW 48 km
Gewijzigd: 19-07-2024 17:55
Licht bewolkt  
Licht bewolkt  
   Wind: ZZO 9.3 km/h
Wind: ZZO 9.3 km/h
Temperatuur: 30°C
Gevoelstemperatuur: 29°C
Dauwpunt: 15°C
Vochtigheid: 40%
Barometer: 1016 hPa
Bewolking: Licht bewolkt
Zicht: meer dan 10 km
Bewolking: Licht bewolkt 29000 ft
EHEH 191555Z AUTO 15005KT 130V220 9999 FEW290 30/15 Q1016 BLU NOSIG RMK TREND REMOTE BY EHWX
EHGR - Gilze-Rijen Rnla, Netherlands
Afstand tot: WZW 70 km
Gewijzigd: 19-07-2024 17:55
Bewolking  
Bewolking  
   Wind: Zuiden 13 km/h
Wind: Zuiden 13 km/h
Temperatuur: 30°C
Gevoelstemperatuur: 29°C
Dauwpunt: 15°C
Vochtigheid: 40%
Barometer: 1016 hPa
Bewolking: Bewolking
Zicht: meer dan 10 km
Bewolking: Bewolking 18000 ft
EHGR 191555Z AUTO 17007KT 120V240 9999 OVC180 30/15 Q1016 BLU
EBBL - Kleine-Brogel(Ba, Belgium
Afstand tot: ZZW 71 km
Gewijzigd: 19-07-2024 17:55
Licht bewolkt  
Licht bewolkt  
   Wind: Oosten 9.3 km/h
Wind: Oosten 9.3 km/h
Temperatuur: 29°C
Gevoelstemperatuur: 28°C
Dauwpunt: 14°C
Vochtigheid: 40%
Barometer: 1016 hPa
Bewolking: Licht bewolkt
Zicht: meer dan 10 km
Bewolking: Licht bewolkt 8100 ft
EBBL 191555Z AUTO 09005KT 9999 FEW081/// 29/14 Q1016 BLU

Script ontwikkeld door  Saratoga-weather.org Aangepast voor de template door  Weerstation Leuven

U vindt ons ook hier:

Het Weer Aktueel

UK Metoffice

WeatherCloud

Weather Underground-IWESTE54

BNLWN

AWEKAS

Citizen Weather Observer Program (CWOP)

HAMweather, WeatherForYou, PWS Weather

weerspecialist

Apparatuur in gebruik:

Weerstation
Davis VP2

Weercomputer
Meteobridge Nano SD

Webleverancier
Strato

Davis VP2

Meteobridge Nano SD

Strato